Opp, AL

12:59 AM CDT on September 26, 2016 (GMT -0500)
Opp Cablevision Headend | | Change Station

Elev 327 ft 31.29 °N, 86.26 °W | Updated 4 seconds ago

Partly Cloudy
Partly Cloudy
74.5 °F
Feels Like 74 °F
N
0.0
Wind Variable Wind from ESE
Gusts 4.0 mph

Today
High -- | Low -- °F
--% Chance of Precip.
Yesterday
High -- | Low -- °F
Precip. -- in
Pressure 30.01 in
Visibility 10.0 miles
Clouds Few 12000 ft
Heat Index 74 °F
Dew Point 69 °F
Humidity 83%
Rainfall 0.00 in
Snow Depth Not available.
6:36 AM 6:35 PM
Waning Crescent, 21% visible
METAR K79J 260556Z AUTO 13004KT 10SM FEW120 24/21 A3002 RMK AO2 SLP161 T02390206 10261 20239 58002 $
Pressure 30.01 in
Visibility 10.0 miles
Clouds Few 12000 ft
Heat Index 74 °F
Dew Point 69 °F
Humidity 83%
Rainfall 0.00 in
Snow Depth Not available.
6:36 AM 6:35 PM
Waning Crescent, 21% visible
METAR K79J 260556Z AUTO 13004KT 10SM FEW120 24/21 A3002 RMK AO2 SLP161 T02390206 10261 20239 58002 $

10-Day Weather Forecast

Almanac

Astronomy

Sep. 26, 2016 Rise Set
Actual Time
Civil Twilight
Nautical Twilight
Astronomical Twilight
Moon
Length of Visible Light
Length of Day
Tomorrow will be .
, % of the Moon is Illuminated

Today's Extremes

State Highs State Lows

Community

WunderPhotos

Upload Photos

1,941,852 photos uploaded!

WunderBlog® & News

Nearby

Air Quality

  Air Quality AQ Index Pollutant
Not available.

Snow Depth

Station Depth Elevation

Earthquake Activity

City Distance Mag. Time & Date
Minimum magnitude displayed is 2.5.

Coastal Water Temperatures

Place Temperature

Stations

Nearby Weather Stations

Station Location Temp. Windchill Dew Point Humidity Wind Precip. Elev Updated Type
                   

Watches & Warnings

There are currently no watches in effect.